Woodstock Valley, Connecticut
Current Conditions -  °F | °C
As of 6:05 PM on Thursday 27 Nov 2014 (Local Time) from KIJD Reporting Station
Light Snow Light Snow  
Wind Chill: 34°   Ceiling: 3400
Heat Index: 34°   Visibility: 3mi
Dew Point: 30°   Wind: 0mph
Humidity: 85%   Direction: NA
Pressure: 29.99"   Gusts: NA
Location:  41.94°N, 72.07°W
Report Text: KIJD 272305Z AUTO 00000KT 3SM -SN BR SCT027 OVC034 01/M01 A2999 RMK AO2 P0000 T00111011
Loading
Personal Weather Stations






























Interactive Weather Map New forecast layout! Learn more

10-Day Weather Forecast

Advertisements
Track Severe Weather on mobile